createdAt,value
2019-04-29T00:00:01.445Z,12.63
2019-04-29T00:02:35.610Z,12.83
2019-04-29T00:05:07.494Z,12.23
2019-04-29T00:07:38.402Z,24.40
2019-04-29T00:10:11.281Z,14.57
2019-04-29T00:12:42.244Z,12.30
2019-04-29T00:15:17.592Z,10.57
2019-04-29T00:17:53.100Z,12.03
2019-04-29T00:20:28.042Z,10.07
2019-04-29T00:22:58.627Z,12.23
2019-04-29T00:25:29.517Z,10.90
2019-04-29T00:28:00.490Z,11.13
2019-04-29T00:30:31.407Z,10.73
2019-04-29T00:33:02.144Z,9.80
2019-04-29T00:35:33.391Z,9.67
2019-04-29T00:38:12.094Z,10.40
2019-04-29T00:40:47.568Z,10.23
2019-04-29T00:43:20.168Z,9.63
2019-04-29T00:45:50.820Z,11.13
2019-04-29T00:48:21.679Z,8.90
2019-04-29T00:50:52.683Z,9.33
2019-04-29T00:53:23.733Z,7.87
2019-04-29T00:55:54.403Z,8.33
2019-04-29T00:58:25.691Z,9.43
2019-04-29T01:00:56.706Z,7.97
2019-04-29T01:03:27.466Z,9.43
2019-04-29T01:05:58.193Z,9.57
2019-04-29T01:08:28.950Z,8.70
2019-04-29T01:10:59.570Z,10.33
2019-04-29T01:13:30.400Z,10.40
2019-04-29T01:16:01.338Z,8.37
2019-04-29T01:18:31.957Z,9.30
2019-04-29T01:21:04.003Z,9.73
2019-04-29T01:23:34.614Z,8.37
2019-04-29T01:26:22.516Z,7.67
2019-04-29T01:28:55.353Z,8.57
2019-04-29T01:31:27.646Z,8.53
2019-04-29T01:34:00.127Z,7.53
2019-04-29T01:36:34.093Z,7.20
2019-04-29T01:39:06.467Z,7.43
2019-04-29T01:41:45.574Z,8.97
2019-04-29T01:44:18.294Z,8.20
2019-04-29T01:46:50.353Z,6.80
2019-04-29T01:49:21.112Z,8.77
2019-04-29T01:51:52.795Z,7.90
2019-04-29T01:54:23.466Z,7.97
2019-04-29T01:56:54.239Z,6.63
2019-04-29T01:59:24.900Z,7.00
2019-04-29T02:01:55.936Z,7.53
2019-04-29T02:04:26.838Z,7.60
2019-04-29T02:06:57.402Z,7.17
2019-04-29T02:09:35.994Z,8.00
2019-04-29T02:12:06.931Z,7.17
2019-04-29T02:14:38.727Z,7.50
2019-04-29T02:17:10.114Z,6.50
2019-04-29T02:19:41.028Z,6.93
2019-04-29T02:22:16.101Z,7.33
2019-04-29T02:24:55.612Z,6.67
2019-04-29T02:27:26.278Z,8.37
2019-04-29T02:29:57.138Z,7.23
2019-04-29T02:32:27.911Z,6.73
2019-04-29T02:34:58.611Z,7.70
2019-04-29T02:37:30.938Z,6.93
2019-04-29T02:40:03.643Z,6.93
2019-04-29T02:42:38.739Z,9.17
2019-04-29T02:45:11.584Z,7.47
2019-04-29T02:47:42.606Z,7.63
2019-04-29T02:50:14.402Z,8.03
2019-04-29T02:52:45.139Z,7.67
2019-04-29T02:55:18.025Z,8.40
2019-04-29T02:57:50.536Z,8.57
2019-04-29T03:04:06.684Z,8.80
2019-04-29T03:06:37.421Z,8.80
2019-04-29T03:09:08.365Z,10.10
2019-04-29T03:11:39.130Z,8.13
2019-04-29T03:14:09.842Z,11.10
2019-04-29T03:16:40.458Z,7.73
2019-04-29T03:19:28.163Z,11.70
2019-04-29T03:22:00.427Z,12.60
2019-04-29T03:24:30.985Z,15.47
2019-04-29T03:27:01.642Z,11.33
2019-04-29T03:29:32.523Z,11.00
2019-04-29T03:32:03.301Z,11.80
2019-04-29T03:34:34.191Z,11.97
2019-04-29T03:37:04.889Z,11.17
2019-04-29T03:39:35.758Z,13.13
2019-04-29T03:42:07.533Z,12.93
2019-04-29T03:44:38.656Z,9.83
2019-04-29T03:47:09.367Z,12.93
